Time;durP1;ratioP1;P1;durP2;ratioP2;P2;SDS_P1;SDS_P2;PMS_P1;PMS_P2;Temp;Humidity;BMP_temperature;BMP_pressure;BME280_temperature;BME280_humidity;BME280_pressure;Samples;Min_cycle;Max_cycle;Signal;HPM_P1;HPM_P2
2021/09/13 00:01:44;;;;;;;3.97;2.90;;;15.10;99.90;;;;;;5030388;28;20719;-72
2021/09/13 00:04:29;;;;;;;5.83;3.17;;;15.10;99.90;;;;;;5032388;28;20413;-73
2021/09/13 00:07:15;;;;;;;6.33;3.70;;;15.20;99.90;;;;;;5032207;28;20521;-73
2021/09/13 00:10:01;;;;;;;4.80;3.10;;;15.30;99.90;;;;;;5032614;28;20399;-73
2021/09/13 00:12:46;;;;;;;4.43;3.00;;;15.30;99.90;;;;;;5024997;28;20823;-74
2021/09/13 00:15:33;;;;;;;4.67;2.80;;;15.20;99.90;;;;;;5032690;28;20486;-73
2021/09/13 00:18:19;;;;;;;4.30;2.80;;;15.10;99.90;;;;;;5023233;28;20435;-73
2021/09/13 00:21:04;;;;;;;3.30;3.00;;;15.00;99.90;;;;;;5029698;28;20419;-74
2021/09/13 00:23:50;;;;;;;4.00;2.83;;;14.80;99.90;;;;;;5020712;28;20506;-73
2021/09/13 00:26:36;;;;;;;3.70;3.00;;;14.70;99.90;;;;;;5024524;28;20426;-73
2021/09/13 00:29:21;;;;;;;4.73;3.10;;;14.70;99.90;;;;;;5014624;28;20536;-73
2021/09/13 00:32:09;;;;;;;4.13;3.10;;;14.60;99.90;;;;;;5029697;28;20438;-72
2021/09/13 00:34:55;;;;;;;4.33;3.50;;;14.50;99.90;;;;;;5031055;28;20555;-73
2021/09/13 00:37:41;;;;;;;5.90;3.07;;;14.50;99.90;;;;;;5031950;28;20547;-73
2021/09/13 00:40:27;;;;;;;3.83;2.83;;;14.60;99.90;;;;;;5012230;28;20476;-73
2021/09/13 00:43:12;;;;;;;3.50;2.90;;;14.70;99.90;;;;;;5025876;28;20430;-73
2021/09/13 00:45:58;;;;;;;3.53;3.10;;;14.70;99.90;;;;;;5019509;28;20427;-73
2021/09/13 00:48:45;;;;;;;4.07;2.87;;;14.70;99.90;;;;;;5016644;28;20416;-74
2021/09/13 00:51:31;;;;;;;5.67;3.07;;;14.70;99.90;;;;;;5020685;28;20519;-73
2021/09/13 00:54:17;;;;;;;5.20;2.80;;;14.60;99.90;;;;;;5028424;28;20506;-73
2021/09/13 00:57:04;;;;;;;8.17;3.10;;;14.60;99.90;;;;;;5024277;28;20998;-73
2021/09/13 00:59:50;;;;;;;4.53;2.67;;;14.70;99.90;;;;;;5029968;28;20560;-73
2021/09/13 01:02:35;;;;;;;3.53;2.90;;;14.80;99.90;;;;;;5029144;28;20526;-74
2021/09/13 01:05:22;;;;;;;3.83;2.37;;;14.70;99.90;;;;;;5019978;28;20419;-73
2021/09/13 01:08:08;;;;;;;3.40;2.50;;;14.60;99.90;;;;;;5023701;28;20428;-73
2021/09/13 01:10:55;;;;;;;3.80;2.50;;;14.50;99.90;;;;;;5024513;28;20484;-73
2021/09/13 01:13:41;;;;;;;3.87;2.70;;;14.60;99.90;;;;;;5031711;28;20425;-73
2021/09/13 01:16:26;;;;;;;8.03;2.87;;;14.60;99.90;;;;;;5029034;28;20487;-73
2021/09/13 01:19:13;;;;;;;3.80;2.73;;;14.50;99.90;;;;;;5011900;28;20396;-73
2021/09/13 01:22:02;;;;;;;5.03;2.97;;;14.40;99.90;;;;;;5027955;28;20518;-72
2021/09/13 01:24:49;;;;;;;3.60;2.70;;;14.40;99.90;;;;;;5016005;28;20837;-74
2021/09/13 01:27:35;;;;;;;4.50;3.20;;;14.30;99.90;;;;;;5019795;28;20523;-73
2021/09/13 01:30:21;;;;;;;3.53;2.87;;;14.30;99.90;;;;;;5026003;28;20795;-73
2021/09/13 01:33:06;;;;;;;5.37;2.80;;;14.30;99.90;;;;;;5029608;28;20406;-73
2021/09/13 01:35:52;;;;;;;6.67;3.10;;;14.30;99.90;;;;;;5030643;28;20447;-73
2021/09/13 01:38:37;;;;;;;3.50;2.67;;;14.30;99.90;;;;;;5017163;28;20507;-73
2021/09/13 01:41:24;;;;;;;4.77;2.60;;;14.30;99.90;;;;;;5028583;28;20546;-73
2021/09/13 01:44:10;;;;;;;4.97;2.57;;;14.40;99.90;;;;;;5026985;28;20434;-73
2021/09/13 01:46:57;;;;;;;3.47;3.00;;;14.40;99.90;;;;;;5028412;28;20452;-73
2021/09/13 01:49:42;;;;;;;4.33;2.40;;;14.40;99.90;;;;;;5028104;28;20683;-73
2021/09/13 01:52:28;;;;;;;5.30;2.60;;;14.30;99.90;;;;;;5032979;28;20439;-74
2021/09/13 01:55:14;;;;;;;8.00;2.73;;;14.20;99.90;;;;;;5027409;28;20955;-74
2021/09/13 01:58:01;;;;;;;6.60;3.10;;;14.10;99.90;;;;;;5033229;28;20455;-73
2021/09/13 02:00:47;;;;;;;4.67;2.73;;;14.10;99.90;;;;;;5027927;28;20452;-73
2021/09/13 02:03:32;;;;;;;4.17;3.20;;;14.00;99.90;;;;;;5035031;28;20421;-73
2021/09/13 02:06:19;;;;;;;3.10;2.50;;;14.00;99.90;;;;;;5032719;28;20426;-73
2021/09/13 02:09:04;;;;;;;3.20;2.77;;;13.90;99.90;;;;;;5030689;28;21037;-73
2021/09/13 02:11:50;;;;;;;3.80;2.83;;;13.90;99.90;;;;;;5031299;28;20516;-73
2021/09/13 02:14:37;;;;;;;4.00;2.77;;;13.90;99.90;;;;;;5028053;28;20886;-73
2021/09/13 02:17:23;;;;;;;3.00;2.50;;;13.90;99.90;;;;;;5028507;28;20430;-74
2021/09/13 02:20:09;;;;;;;3.50;2.50;;;13.90;99.90;;;;;;5032696;28;20444;-73
2021/09/13 02:22:55;;;;;;;4.90;2.53;;;13.90;99.90;;;;;;5032611;28;20423;-72
2021/09/13 02:25:40;;;;;;;5.27;2.53;;;14.00;99.90;;;;;;5030973;28;20444;-73
2021/09/13 02:28:26;;;;;;;8.10;2.90;;;14.00;99.90;;;;;;5033460;28;20477;-73
2021/09/13 02:31:13;;;;;;;8.00;3.03;;;14.00;99.90;;;;;;5027262;28;20435;-74
2021/09/13 02:33:59;;;;;;;4.10;2.63;;;13.90;99.90;;;;;;5031938;28;20440;-73
2021/09/13 02:36:44;;;;;;;4.10;2.33;;;13.90;99.90;;;;;;5014799;28;20486;-73
2021/09/13 02:39:30;;;;;;;6.97;3.33;;;13.90;99.90;;;;;;5026324;28;20995;-73
2021/09/13 02:42:15;;;;;;;3.20;2.60;;;14.00;99.90;;;;;;5023074;28;20472;-73
2021/09/13 02:45:01;;;;;;;3.57;2.50;;;14.10;99.90;;;;;;5033496;28;20439;-73
2021/09/13 02:47:48;;;;;;;6.30;2.60;;;14.10;99.90;;;;;;5030239;28;20464;-73
2021/09/13 02:50:34;;;;;;;2.33;1.97;;;14.10;99.90;;;;;;5033924;28;20547;-74
2021/09/13 02:53:20;;;;;;;8.70;2.93;;;14.00;99.90;;;;;;5023915;28;20546;-73
2021/09/13 02:56:05;;;;;;;3.70;2.40;;;14.00;99.90;;;;;;5031760;28;20472;-73
2021/09/13 02:58:51;;;;;;;2.90;2.30;;;13.80;99.90;;;;;;5033880;28;20449;-74
2021/09/13 03:01:36;;;;;;;3.17;2.53;;;13.80;99.90;;;;;;5031958;28;20824;-74
2021/09/13 03:04:23;;;;;;;4.70;2.50;;;13.60;99.90;;;;;;5027655;28;20798;-73
2021/09/13 03:07:10;;;;;;;2.83;2.27;;;13.50;99.90;;;;;;5021547;28;20407;-72
2021/09/13 03:09:56;;;;;;;5.13;2.23;;;13.30;99.90;;;;;;5029080;28;20828;-73
2021/09/13 03:12:41;;;;;;;6.57;2.57;;;13.30;99.90;;;;;;5025560;23;20873;-74
2021/09/13 03:15:27;;;;;;;4.20;2.80;;;13.40;99.90;;;;;;5013439;28;20445;-75
2021/09/13 03:18:13;;;;;;;2.97;2.27;;;13.50;99.90;;;;;;5011677;28;20564;-76
2021/09/13 03:21:00;;;;;;;8.73;2.83;;;13.50;99.90;;;;;;5020920;28;20407;-75
2021/09/13 03:23:46;;;;;;;9.10;2.80;;;13.40;99.90;;;;;;4997366;28;20572;-76
2021/09/13 03:26:31;;;;;;;4.60;2.73;;;13.40;99.90;;;;;;4996978;28;20432;-76
2021/09/13 03:29:17;;;;;;;3.23;2.70;;;13.40;99.90;;;;;;4996918;28;20512;-76
2021/09/13 03:32:03;;;;;;;3.37;2.90;;;13.40;99.90;;;;;;5003300;28;20524;-76
2021/09/13 03:34:49;;;;;;;7.50;3.47;;;13.40;99.90;;;;;;5000673;28;20483;-76
2021/09/13 03:37:36;;;;;;;5.40;3.00;;;13.50;99.90;;;;;;4991926;28;20836;-75
2021/09/13 03:40:22;;;;;;;6.10;3.13;;;13.50;99.90;;;;;;5000029;28;20498;-76
2021/09/13 03:43:07;;;;;;;3.60;2.47;;;13.60;99.90;;;;;;4998318;28;20603;-75
2021/09/13 03:45:53;;;;;;;3.63;2.70;;;13.60;99.90;;;;;;4998732;28;20489;-74
2021/09/13 03:48:39;;;;;;;6.73;3.10;;;13.50;99.90;;;;;;5000086;28;20424;-74
2021/09/13 03:51:24;;;;;;;5.33;2.23;;;13.40;99.90;;;;;;4989491;28;20461;-73
2021/09/13 03:54:11;;;;;;;2.60;2.27;;;13.30;99.90;;;;;;5001823;28;20885;-76
2021/09/13 03:56:57;;;;;;;3.00;2.50;;;13.10;99.90;;;;;;4992074;28;20472;-75
2021/09/13 03:59:42;;;;;;;6.93;2.70;;;13.10;99.90;;;;;;5003009;28;21031;-76
2021/09/13 04:02:29;;;;;;;2.67;2.17;;;13.10;99.90;;;;;;5001152;28;20482;-76
2021/09/13 04:05:19;;;;;;;3.20;2.30;;;13.00;99.90;;;;;;4998353;28;20481;-76
2021/09/13 04:08:15;;;;;;;3.80;2.73;;;13.10;99.90;;;;;;4988990;28;20446;-76
2021/09/13 04:11:17;;;;;;;3.27;2.60;;;13.20;99.90;;;;;;5001235;28;20422;-76
2021/09/13 04:13:50;;;;;;;2.50;1.93;;;13.30;99.90;;;;;;5108307;27;20988;-76
2021/09/13 04:16:35;;;;;;;3.73;2.70;;;13.30;99.90;;;;;;5109235;28;20414;-76
2021/09/13 04:19:22;;;;;;;3.27;2.30;;;13.40;99.90;;;;;;5102041;28;20895;-76
2021/09/13 04:22:07;;;;;;;3.43;2.30;;;13.40;99.90;;;;;;5096204;28;20606;-77
2021/09/13 04:24:53;;;;;;;3.53;2.50;;;13.50;99.90;;;;;;5106897;28;20942;-76
2021/09/13 04:27:38;;;;;;;2.97;2.63;;;13.60;99.90;;;;;;5106111;28;20580;-77
2021/09/13 04:30:26;;;;;;;5.23;2.30;;;13.60;99.90;;;;;;5106252;28;20519;-76
2021/09/13 04:33:13;;;;;;;2.90;2.30;;;13.50;99.90;;;;;;5103859;28;20444;-76
2021/09/13 04:35:58;;;;;;;4.80;2.40;;;13.40;99.90;;;;;;5107327;28;20765;-75
2021/09/13 04:38:44;;;;;;;5.77;2.30;;;13.40;99.90;;;;;;5107554;28;20415;-76
2021/09/13 04:41:29;;;;;;;4.50;2.30;;;13.20;99.90;;;;;;5104268;28;20492;-76
2021/09/13 04:44:15;;;;;;;5.37;2.50;;;13.20;99.90;;;;;;5107564;28;20396;-76
2021/09/13 04:47:02;;;;;;;4.83;2.87;;;13.10;99.90;;;;;;5103932;28;20454;-75
2021/09/13 04:49:47;;;;;;;4.50;2.53;;;13.10;99.90;;;;;;5105148;28;20443;-76
2021/09/13 04:52:33;;;;;;;3.03;2.37;;;13.00;99.90;;;;;;5099017;28;20477;-77
2021/09/13 04:55:19;;;;;;;7.27;2.40;;;13.10;99.90;;;;;;5100564;28;20431;-76
2021/09/13 04:58:04;;;;;;;3.10;2.40;;;13.10;99.90;;;;;;5104463;28;20463;-76
2021/09/13 05:00:50;;;;;;;3.80;2.83;;;13.20;99.90;;;;;;5098346;28;20953;-75
2021/09/13 05:03:37;;;;;;;5.17;2.80;;;13.30;99.90;;;;;;5106241;28;20879;-76
2021/09/13 05:06:23;;;;;;;4.20;2.73;;;13.30;99.90;;;;;;5100097;28;20441;-77
2021/09/13 05:09:08;;;;;;;3.73;2.90;;;13.00;99.90;;;;;;5097164;28;20478;-76
2021/09/13 05:11:54;;;;;;;5.10;3.13;;;12.90;99.90;;;;;;5104649;28;20594;-77
2021/09/13 05:14:39;;;;;;;4.07;2.93;;;12.70;99.90;;;;;;5094116;28;20519;-76
2021/09/13 05:17:24;;;;;;;3.27;2.70;;;12.30;99.90;;;;;;5105951;28;20423;-77
2021/09/13 05:20:13;;;;;;;8.67;3.23;;;12.30;99.90;;;;;;5094440;28;20618;-76
2021/09/13 05:22:59;;;;;;;4.60;2.80;;;12.30;99.90;;;;;;5091470;28;20795;-77
2021/09/13 05:25:44;;;;;;;12.30;3.73;;;12.40;99.90;;;;;;5089203;28;20419;-77
2021/09/13 05:28:30;;;;;;;3.07;2.00;;;12.70;99.90;;;;;;5081895;28;20592;-76
2021/09/13 05:31:16;;;;;;;4.90;2.23;;;12.90;99.90;;;;;;5088615;28;20420;-75
2021/09/13 05:34:01;;;;;;;3.53;2.87;;;13.00;99.90;;;;;;5087810;28;20477;-77
2021/09/13 05:36:48;;;;;;;5.83;2.80;;;13.20;99.90;;;;;;5081868;28;20442;-76
2021/09/13 05:39:35;;;;;;;3.13;2.57;;;13.30;99.90;;;;;;5086124;28;20967;-75
2021/09/13 05:42:20;;;;;;;3.50;2.57;;;13.50;99.90;;;;;;5086442;28;20466;-76
2021/09/13 05:45:07;;;;;;;3.43;2.80;;;13.50;99.90;;;;;;5080440;28;20447;-76
2021/09/13 05:47:52;;;;;;;5.13;3.10;;;13.60;99.90;;;;;;5084066;28;20459;-76
2021/09/13 05:50:38;;;;;;;5.33;2.87;;;13.70;99.90;;;;;;5083107;28;20542;-77
2021/09/13 05:53:25;;;;;;;3.00;2.60;;;13.80;99.90;;;;;;5085599;28;20485;-77
2021/09/13 05:56:10;;;;;;;4.80;2.77;;;13.90;99.90;;;;;;5079138;28;20432;-75
2021/09/13 05:58:56;;;;;;;4.00;3.20;;;13.80;99.90;;;;;;5089702;28;20555;-77
2021/09/13 06:01:41;;;;;;;4.37;2.60;;;13.80;99.90;;;;;;5091866;28;20469;-76
2021/09/13 06:04:29;;;;;;;5.77;2.90;;;13.90;99.90;;;;;;5080659;28;20510;-77
2021/09/13 06:07:15;;;;;;;4.40;2.67;;;14.00;99.90;;;;;;5090187;28;20522;-77
2021/09/13 06:10:02;;;;;;;3.10;2.60;;;14.10;99.90;;;;;;5088586;28;20466;-77
2021/09/13 06:12:48;;;;;;;2.97;2.53;;;14.10;99.90;;;;;;5083189;28;20479;-75
2021/09/13 06:15:33;;;;;;;4.03;2.70;;;14.20;99.90;;;;;;5087717;28;20446;-75
2021/09/13 06:18:19;;;;;;;3.57;2.97;;;14.30;99.90;;;;;;5084063;28;20423;-76
2021/09/13 06:21:05;;;;;;;4.70;2.90;;;14.40;99.90;;;;;;5085560;28;20447;-76
2021/09/13 06:23:51;;;;;;;4.17;3.40;;;14.40;99.90;;;;;;5091101;28;20789;-76
2021/09/13 06:26:38;;;;;;;9.20;3.33;;;14.40;99.90;;;;;;5089505;28;20417;-77
2021/09/13 06:29:24;;;;;;;5.93;3.37;;;14.50;99.90;;;;;;5087394;28;20411;-77
2021/09/13 06:32:09;;;;;;;9.60;4.10;;;14.50;99.90;;;;;;5086324;28;20518;-76
2021/09/13 06:34:55;;;;;;;5.33;3.40;;;14.50;99.90;;;;;;5088020;28;20424;-77
2021/09/13 06:37:41;;;;;;;5.13;3.80;;;14.50;99.90;;;;;;5081711;28;20442;-76
2021/09/13 06:40:27;;;;;;;5.70;3.03;;;14.60;99.90;;;;;;5085683;28;20800;-77
2021/09/13 06:43:16;;;;;;;3.77;3.17;;;14.70;99.90;;;;;;5085708;28;20482;-76
2021/09/13 06:46:10;;;;;;;13.43;3.30;;;14.70;99.90;;;;;;5089919;28;20446;-76
2021/09/13 06:48:56;;;;;;;8.70;3.57;;;14.70;99.90;;;;;;5093143;28;20754;-75
2021/09/13 06:51:41;;;;;;;10.00;3.60;;;14.70;99.90;;;;;;5087893;28;20466;-77
2021/09/13 06:54:27;;;;;;;5.23;3.50;;;14.80;99.90;;;;;;5074296;28;20449;-77
2021/09/13 06:57:13;;;;;;;4.70;3.97;;;15.00;99.90;;;;;;5084265;28;20841;-77
2021/09/13 07:00:03;;;;;;;4.80;3.77;;;15.10;99.90;;;;;;5092780;28;20439;-77
2021/09/13 07:02:49;;;;;;;8.47;3.60;;;15.20;99.90;;;;;;5092913;28;20401;-76
2021/09/13 07:05:35;;;;;;;4.20;3.70;;;15.30;99.90;;;;;;5089976;28;20450;-76
2021/09/13 07:08:21;;;;;;;5.40;4.33;;;15.50;99.90;;;;;;5086221;28;20507;-76
2021/09/13 07:11:07;;;;;;;5.50;4.03;;;15.50;99.90;;;;;;5079865;28;20447;-76
2021/09/13 07:13:54;;;;;;;6.43;4.40;;;15.50;99.90;;;;;;5091427;28;20449;-76
2021/09/13 07:16:41;;;;;;;4.90;3.93;;;15.60;99.90;;;;;;5089719;28;20422;-76
2021/09/13 07:19:26;;;;;;;8.43;4.70;;;15.60;99.90;;;;;;5083646;28;20425;-75
2021/09/13 07:22:12;;;;;;;6.30;4.33;;;15.50;99.90;;;;;;5088280;28;20454;-75
2021/09/13 07:24:58;;;;;;;11.90;4.57;;;15.60;99.90;;;;;;5092080;28;20389;-76
2021/09/13 07:27:43;;;;;;;6.30;4.80;;;15.80;99.90;;;;;;5091050;28;20558;-75
2021/09/13 07:30:29;;;;;;;7.53;4.60;;;15.80;99.90;;;;;;5086632;28;20424;-76
2021/09/13 07:33:16;;;;;;;7.03;4.90;;;15.90;99.90;;;;;;5075517;28;20448;-76
2021/09/13 07:36:02;;;;;;;6.23;5.20;;;16.10;99.90;;;;;;5089979;28;20451;-75
2021/09/13 07:38:47;;;;;;;14.33;4.90;;;16.20;99.90;;;;;;5074673;28;20439;-75
2021/09/13 07:41:33;;;;;;;13.73;5.77;;;16.30;99.90;;;;;;5078999;28;20607;-75
2021/09/13 07:44:19;;;;;;;7.83;5.33;;;16.50;99.90;;;;;;5077135;28;20406;-75
2021/09/13 07:47:05;;;;;;;14.77;5.50;;;16.60;99.90;;;;;;5083568;28;20467;-75
2021/09/13 07:49:52;;;;;;;10.37;5.50;;;16.80;99.90;;;;;;5088463;28;20551;-75
2021/09/13 07:52:38;;;;;;;7.10;5.30;;;16.80;99.90;;;;;;5084607;28;20607;-75
2021/09/13 07:55:24;;;;;;;7.47;5.53;;;16.90;99.90;;;;;;5076873;28;20578;-75
2021/09/13 07:58:10;;;;;;;9.80;5.70;;;17.00;99.90;;;;;;5082274;28;20513;-75
2021/09/13 08:00:55;;;;;;;7.40;4.80;;;17.10;99.90;;;;;;5084173;28;20443;-75
2021/09/13 08:03:41;;;;;;;7.63;4.73;;;17.20;99.90;;;;;;5086760;28;20397;-76
2021/09/13 08:06:28;;;;;;;10.20;4.50;;;17.30;99.90;;;;;;5082040;28;20429;-75
2021/09/13 08:09:14;;;;;;;11.30;6.50;;;17.50;99.90;;;;;;5084680;28;20496;-75
2021/09/13 08:11:59;;;;;;;7.93;4.70;;;17.60;99.90;;;;;;5083401;28;20457;-75
2021/09/13 08:14:45;;;;;;;11.20;4.67;;;17.80;99.90;;;;;;5086692;28;20440;-75
2021/09/13 08:17:31;;;;;;;7.63;4.60;;;17.90;99.90;;;;;;5089557;28;20425;-75
2021/09/13 08:20:17;;;;;;;5.20;4.47;;;18.00;99.90;;;;;;5082895;28;20438;-75
2021/09/13 08:23:04;;;;;;;6.77;4.60;;;18.20;99.90;;;;;;5091221;28;20434;-75
2021/09/13 08:25:50;;;;;;;7.60;4.50;;;18.30;99.90;;;;;;5088872;28;20911;-74
2021/09/13 08:28:35;;;;;;;7.27;4.70;;;18.40;99.90;;;;;;5083427;28;20446;-75
2021/09/13 08:31:21;;;;;;;9.60;6.80;;;18.60;99.90;;;;;;5085118;28;20997;-74
2021/09/13 08:34:07;;;;;;;5.90;4.40;;;18.70;99.90;;;;;;5078475;28;20441;-75
2021/09/13 08:36:52;;;;;;;8.17;4.13;;;18.80;99.90;;;;;;5082500;28;20444;-75
2021/09/13 08:39:39;;;;;;;6.30;4.50;;;19.00;99.90;;;;;;5086302;28;21095;-75
2021/09/13 08:42:25;;;;;;;5.20;4.37;;;19.10;99.90;;;;;;5085176;28;21288;-75
2021/09/13 08:45:13;;;;;;;6.63;4.63;;;19.20;99.90;;;;;;5079330;28;20448;-75
2021/09/13 08:48:06;;;;;;;8.30;4.43;;;19.40;99.90;;;;;;5070725;28;20508;-75
2021/09/13 08:53:55;;;;;;;6.73;3.63;;;19.70;99.90;;;;;;5077755;28;20730;-75
2021/09/13 08:56:42;;;;;;;5.37;3.13;;;19.80;99.90;;;;;;5084676;28;20442;-75
2021/09/13 08:59:29;;;;;;;9.83;3.40;;;20.00;99.90;;;;;;5087144;28;20759;-75
2021/09/13 09:02:16;;;;;;;3.80;2.70;;;20.10;99.90;;;;;;5085272;28;20435;-75
2021/09/13 09:05:03;;;;;;;5.13;2.90;;;20.30;99.90;;;;;;5079470;28;20567;-75
2021/09/13 09:07:50;;;;;;;5.53;3.00;;;20.40;99.90;;;;;;5093354;28;20440;-75
2021/09/13 09:10:36;;;;;;;8.70;2.57;;;20.50;99.90;;;;;;5094750;28;20899;-75
2021/09/13 09:13:24;;;;;;;3.57;2.60;;;20.60;99.90;;;;;;5085899;28;20961;-76
2021/09/13 09:16:11;;;;;;;6.10;2.60;;;20.70;99.90;;;;;;5077622;28;20421;-76
2021/09/13 09:18:58;;;;;;;3.73;2.80;;;20.80;99.90;;;;;;5088841;28;20467;-76
2021/09/13 09:21:45;;;;;;;3.20;2.27;;;21.00;99.90;;;;;;5092867;28;20945;-76
2021/09/13 09:24:39;;;;;;;4.07;2.37;;;21.10;99.90;;;;;;5092491;28;20562;-76
2021/09/13 09:27:25;;;;;;;5.43;3.17;;;21.20;99.90;;;;;;5086129;28;20578;-76
2021/09/13 09:30:14;;;;;;;3.60;2.70;;;21.30;99.90;;;;;;5083303;28;21019;-76
2021/09/13 09:33:07;;;;;;;3.70;2.27;;;21.40;99.90;;;;;;5085895;28;20454;-76
2021/09/13 09:35:55;;;;;;;3.50;2.13;;;21.40;99.90;;;;;;5086345;28;20400;-76
2021/09/13 09:38:42;;;;;;;3.00;2.37;;;21.60;99.90;;;;;;5078969;28;20542;-77
2021/09/13 09:41:28;;;;;;;5.83;2.73;;;21.70;99.90;;;;;;5081363;28;20813;-77
2021/09/13 09:44:21;;;;;;;4.73;2.33;;;21.90;99.90;;;;;;5084387;28;20418;-76
2021/09/13 09:47:11;;;;;;;3.03;2.13;;;22.00;94.20;;;;;;5086835;28;20432;-76
2021/09/13 09:49:58;;;;;;;3.57;2.17;;;22.00;91.40;;;;;;5084177;28;20445;-76
2021/09/13 09:52:44;;;;;;;5.30;2.00;;;22.20;92.90;;;;;;5088507;28;23394;-76
2021/09/13 09:55:30;;;;;;;2.50;1.60;;;22.30;91.00;;;;;;5086765;28;20978;-76
2021/09/13 09:58:15;;;;;;;3.23;2.80;;;22.20;82.20;;;;;;5073107;28;20828;-76
2021/09/13 10:01:01;;;;;;;4.47;2.60;;;22.20;84.30;;;;;;5089711;28;20444;-76
2021/09/13 10:03:48;;;;;;;4.10;2.43;;;22.30;86.50;;;;;;5087564;28;20500;-76
2021/09/13 10:06:34;;;;;;;3.00;2.20;;;22.40;84.90;;;;;;5082054;28;20456;-76
2021/09/13 10:09:21;;;;;;;5.37;2.03;;;22.60;84.90;;;;;;5081069;28;20527;-76
2021/09/13 10:12:07;;;;;;;9.03;2.27;;;22.70;82.10;;;;;;5091739;28;20483;-76
2021/09/13 10:14:54;;;;;;;5.20;2.23;;;22.80;78.20;;;;;;5083896;28;20476;-76
2021/09/13 10:17:39;;;;;;;3.33;2.00;;;22.80;80.10;;;;;;5078672;28;20463;-77
2021/09/13 10:20:26;;;;;;;7.10;2.10;;;23.00;76.00;;;;;;5084025;28;20424;-76
2021/09/13 10:23:12;;;;;;;2.90;2.10;;;23.10;74.00;;;;;;5084873;28;20538;-76
2021/09/13 10:25:58;;;;;;;2.93;2.13;;;23.30;74.30;;;;;;5076579;28;20557;-76
2021/09/13 10:29:13;;;;;;;3.30;2.07;;;23.30;73.70;;;;;;5082920;28;20427;-76
2021/09/13 10:32:05;;;;;;;2.77;2.27;;;23.50;73.20;;;;;;5085602;28;20472;-76
2021/09/13 10:34:52;;;;;;;3.20;2.07;;;23.60;70.20;;;;;;5077404;28;20443;-76
2021/09/13 10:37:44;;;;;;;3.13;2.47;;;23.80;66.70;;;;;;5082594;28;20954;-76
2021/09/13 10:40:32;;;;;;;12.60;2.83;;;23.90;61.30;;;;;;5080040;28;20499;-75
2021/09/13 10:43:19;;;;;;;5.77;2.50;;;24.00;59.60;;;;;;5079152;28;20856;-75
2021/09/13 10:46:06;;;;;;;3.37;1.90;;;24.10;61.70;;;;;;5080453;28;20502;-76
2021/09/13 10:49:11;;;;;;;3.37;2.00;;;24.10;55.40;;;;;;5075269;28;20565;-76
2021/09/13 10:52:31;;;;;;;2.60;1.83;;;24.20;59.90;;;;;;5080143;28;20465;-76
2021/09/13 10:55:30;;;;;;;3.80;1.87;;;24.50;62.80;;;;;;5080514;28;20521;-76
2021/09/13 10:58:17;;;;;;;2.80;1.77;;;24.70;63.70;;;;;;5081866;28;20453;-76
2021/09/13 11:01:06;;;;;;;4.43;2.10;;;24.90;58.50;;;;;;5087493;28;20463;-76
2021/09/13 11:03:53;;;;;;;3.73;2.10;;;25.00;56.70;;;;;;5077651;28;20438;-77
2021/09/13 11:06:45;;;;;;;5.23;2.00;;;24.90;54.70;;;;;;5078487;28;20556;-76
2021/09/13 11:09:30;;;;;;;3.60;1.80;;;25.00;58.00;;;;;;5075743;28;20448;-76
2021/09/13 11:12:22;;;;;;;2.63;1.50;;;24.90;55.40;;;;;;5080182;28;20662;-76
2021/09/13 11:15:08;;;;;;;4.53;1.90;;;24.70;58.30;;;;;;5081975;28;20547;-76
2021/09/13 11:17:54;;;;;;;3.33;2.03;;;24.40;60.50;;;;;;5076846;28;20984;-76
2021/09/13 11:20:40;;;;;;;5.33;2.07;;;24.20;63.80;;;;;;5077485;28;20445;-76
2021/09/13 11:23:33;;;;;;;2.90;2.10;;;23.90;64.90;;;;;;5081238;28;20570;-76
2021/09/13 11:26:28;;;;;;;2.57;1.80;;;23.90;63.60;;;;;;5074191;28;20847;-77
2021/09/13 11:29:16;;;;;;;2.70;2.10;;;23.70;65.30;;;;;;5087108;28;20752;-76
2021/09/13 11:32:04;;;;;;;3.77;2.63;;;23.90;63.00;;;;;;5078127;28;20473;-76
2021/09/13 11:34:51;;;;;;;3.10;2.17;;;24.00;63.60;;;;;;5085961;28;20477;-78
2021/09/13 11:37:37;;;;;;;3.23;2.20;;;24.20;61.40;;;;;;5087757;28;20463;-79
2021/09/13 11:40:25;;;;;;;2.63;1.97;;;24.40;60.70;;;;;;5086020;28;20592;-78
2021/09/13 11:43:11;;;;;;;3.60;2.37;;;24.50;62.90;;;;;;5077673;28;21137;-76
2021/09/13 11:46:05;;;;;;;4.80;2.17;;;24.50;61.30;;;;;;5075872;28;20424;-76
2021/09/13 11:48:50;;;;;;;10.53;2.20;;;24.50;61.50;;;;;;5080422;28;20439;-76
2021/09/13 11:52:08;;;;;;;5.23;2.23;;;24.40;61.60;;;;;;5072945;28;20470;-77
2021/09/13 11:54:56;;;;;;;3.90;2.27;;;24.30;62.80;;;;;;5081336;28;21073;-76
2021/09/13 11:57:43;;;;;;;3.67;2.10;;;24.50;61.70;;;;;;5087322;28;20467;-76
2021/09/13 12:00:33;;;;;;;3.60;2.30;;;24.60;60.10;;;;;;5091962;28;20411;-76
2021/09/13 12:03:29;;;;;;;3.27;2.03;;;24.60;59.10;;;;;;5083909;28;20457;-77
2021/09/13 12:06:19;;;;;;;10.03;2.40;;;24.50;59.30;;;;;;5080675;28;20450;-77
2021/09/13 12:09:05;;;;;;;5.67;2.27;;;24.50;60.10;;;;;;5077917;28;20446;-76
2021/09/13 12:11:50;;;;;;;5.97;2.53;;;24.90;64.30;;;;;;5077779;28;20507;-77
2021/09/13 12:14:39;;;;;;;4.83;2.50;;;25.20;59.80;;;;;;5087239;28;20441;-78
2021/09/13 12:17:25;;;;;;;8.07;2.00;;;25.40;60.70;;;;;;5083840;28;20433;-77
2021/09/13 12:20:19;;;;;;;4.37;2.40;;;25.70;59.20;;;;;;5080868;28;21070;-77
2021/09/13 12:23:06;;;;;;;3.60;1.77;;;25.90;55.10;;;;;;5091574;28;20529;-77
2021/09/13 12:25:53;;;;;;;3.73;1.90;;;25.90;55.40;;;;;;5085082;28;20447;-77
2021/09/13 12:28:39;;;;;;;5.83;2.27;;;25.70;54.40;;;;;;5086160;28;20421;-77
2021/09/13 12:31:28;;;;;;;3.10;2.27;;;25.90;56.10;;;;;;5085863;28;20580;-77
2021/09/13 12:34:14;;;;;;;4.27;2.30;;;26.20;56.30;;;;;;5090441;28;20555;-77
2021/09/13 12:37:05;;;;;;;4.50;2.30;;;26.40;55.20;;;;;;5094771;28;20918;-77
2021/09/13 12:40:01;;;;;;;2.87;2.13;;;26.60;55.20;;;;;;5093302;28;20446;-77
2021/09/13 12:42:56;;;;;;;3.00;2.00;;;26.70;54.50;;;;;;5086946;28;20532;-77
2021/09/13 12:45:42;;;;;;;3.77;1.93;;;26.80;55.00;;;;;;5091828;28;20887;-79
2021/09/13 12:48:28;;;;;;;4.80;2.33;;;26.60;52.30;;;;;;5090781;28;20530;-77
2021/09/13 12:51:15;;;;;;;3.80;2.10;;;26.20;54.00;;;;;;5077826;28;20450;-78
2021/09/13 12:54:05;;;;;;;4.23;3.07;;;25.80;55.70;;;;;;5091196;28;20489;-78
2021/09/13 12:56:51;;;;;;;6.57;2.53;;;25.70;57.50;;;;;;5085405;28;20447;-78
2021/09/13 12:59:37;;;;;;;4.13;3.00;;;25.50;59.00;;;;;;5091807;28;20435;-78
2021/09/13 13:02:23;;;;;;;4.83;2.30;;;25.40;60.60;;;;;;5085001;28;20462;-78
2021/09/13 13:05:31;;;;;;;3.43;2.60;;;25.60;61.30;;;;;;5094404;28;20809;-78
2021/09/13 13:08:17;;;;;;;3.30;2.10;;;25.90;56.50;;;;;;5083101;28;20446;-78
2021/09/13 13:11:04;;;;;;;5.03;2.13;;;26.20;56.10;;;;;;5091077;28;20416;-78
2021/09/13 13:13:50;;;;;;;3.20;2.30;;;26.60;53.40;;;;;;5081153;28;20530;-79
2021/09/13 13:16:37;;;;;;;4.63;2.60;;;26.90;53.10;;;;;;5093139;28;20446;-79
2021/09/13 13:19:23;;;;;;;6.77;2.20;;;27.20;51.80;;;;;;5091854;28;20934;-79
2021/09/13 13:22:10;;;;;;;4.20;2.57;;;27.60;50.20;;;;;;5089570;28;20541;-79
2021/09/13 13:24:55;;;;;;;4.67;2.27;;;27.80;49.40;;;;;;5081092;28;20542;-78
2021/09/13 13:27:42;;;;;;;4.90;2.30;;;27.90;50.90;;;;;;5091775;28;20455;-79
2021/09/13 13:30:28;;;;;;;5.20;2.50;;;28.10;50.30;;;;;;5087654;28;20429;-78
2021/09/13 13:33:14;;;;;;;4.27;2.20;;;28.40;48.30;;;;;;5090699;28;20459;-79
2021/09/13 13:36:00;;;;;;;5.70;2.33;;;28.60;47.90;;;;;;5088736;28;20465;-78
2021/09/13 13:38:45;;;;;;;3.37;2.27;;;28.60;47.80;;;;;;5091037;28;20453;-77
2021/09/13 13:41:31;;;;;;;4.07;2.40;;;28.70;47.90;;;;;;5092514;28;20484;-77
2021/09/13 13:44:18;;;;;;;3.27;2.00;;;28.60;45.70;;;;;;5084403;28;20800;-78
2021/09/13 13:47:04;;;;;;;4.10;2.27;;;28.80;46.40;;;;;;5088893;28;20559;-78
2021/09/13 13:49:50;;;;;;;4.03;2.20;;;28.90;47.20;;;;;;5090620;28;20446;-78
2021/09/13 13:52:35;;;;;;;3.50;2.43;;;29.00;45.60;;;;;;5082768;28;20469;-78
2021/09/13 13:55:21;;;;;;;3.73;2.40;;;29.00;44.70;;;;;;5083821;28;20467;-78
2021/09/13 13:58:06;;;;;;;3.57;2.33;;;29.00;45.70;;;;;;5097014;28;20414;-77
2021/09/13 14:00:54;;;;;;;4.73;2.27;;;29.00;45.60;;;;;;5096074;28;20428;-77
2021/09/13 14:03:39;;;;;;;4.80;2.23;;;29.10;45.90;;;;;;5089685;28;20444;-78
2021/09/13 14:06:25;;;;;;;3.00;2.27;;;29.00;45.00;;;;;;5077064;28;20448;-78
2021/09/13 14:09:10;;;;;;;5.13;2.47;;;28.70;45.30;;;;;;5082792;28;20456;-78
2021/09/13 14:11:56;;;;;;;7.60;2.60;;;28.50;46.20;;;;;;5086181;28;20477;-77
2021/09/13 14:14:42;;;;;;;4.20;2.50;;;28.40;45.70;;;;;;5081727;28;21001;-78
2021/09/13 14:17:30;;;;;;;4.03;2.30;;;28.30;46.80;;;;;;5085521;28;20546;-78
2021/09/13 14:20:15;;;;;;;4.20;2.43;;;28.20;47.10;;;;;;5088089;28;21041;-78
2021/09/13 14:23:01;;;;;;;3.70;2.60;;;28.30;47.60;;;;;;5080999;28;21005;-78
2021/09/13 14:25:47;;;;;;;3.40;2.57;;;28.20;46.90;;;;;;5088590;28;20452;-78
2021/09/13 14:28:32;;;;;;;3.80;2.40;;;27.60;47.00;;;;;;5083592;28;20517;-78
2021/09/13 14:31:18;;;;;;;3.73;2.33;;;27.40;48.20;;;;;;5082192;28;20964;-78